createdAt,value
2024-04-12T00:01:36.743Z,14.79
2024-04-12T00:03:41.699Z,14.77
2024-04-12T00:05:43.503Z,14.71
2024-04-12T00:07:45.338Z,14.74
2024-04-12T00:09:49.062Z,14.77
2024-04-12T00:11:53.294Z,14.74
2024-04-12T00:13:55.074Z,14.69
2024-04-12T00:15:57.136Z,14.69
2024-04-12T00:17:58.986Z,14.66
2024-04-12T00:20:03.751Z,14.69
2024-04-12T00:22:05.488Z,14.77
2024-04-12T00:24:07.358Z,14.83
2024-04-12T00:26:09.193Z,14.80
2024-04-12T00:28:11.214Z,14.78
2024-04-12T00:30:13.119Z,14.78
2024-04-12T00:32:15.853Z,14.71
2024-04-12T00:34:17.739Z,14.68
2024-04-12T00:36:22.387Z,14.63
2024-04-12T00:38:24.402Z,14.76
2024-04-12T00:40:26.156Z,14.79
2024-04-12T00:42:28.024Z,14.78
2024-04-12T00:44:29.867Z,14.70
2024-04-12T00:46:31.968Z,14.65
2024-04-12T00:48:33.903Z,14.74
2024-04-12T00:50:36.864Z,14.73
2024-04-12T00:52:41.330Z,14.74
2024-04-12T00:54:43.706Z,14.77
2024-04-12T00:56:46.129Z,14.81
2024-04-12T00:58:48.063Z,14.71
2024-04-12T01:00:49.914Z,14.63
2024-04-12T01:02:51.748Z,14.64
2024-04-12T01:04:53.755Z,14.57
2024-04-12T01:06:55.489Z,14.68
2024-04-12T01:09:01.091Z,14.69
2024-04-12T01:11:03.099Z,14.66
2024-04-12T01:13:04.884Z,14.48
2024-04-12T01:15:07.560Z,14.47
2024-04-12T01:17:09.359Z,14.43
2024-04-12T01:19:11.150Z,14.48
2024-04-12T01:21:13.343Z,14.57
2024-04-12T01:23:15.097Z,14.54
2024-04-12T01:25:19.457Z,14.50
2024-04-12T01:27:21.438Z,14.54
2024-04-12T01:29:23.312Z,14.59
2024-04-12T01:31:25.187Z,14.60
2024-04-12T01:33:27.005Z,14.58
2024-04-12T01:35:28.782Z,14.50
2024-04-12T01:37:30.596Z,14.49
2024-04-12T01:39:32.465Z,14.53
2024-04-12T01:41:36.909Z,14.40
2024-04-12T01:43:39.196Z,14.44
2024-04-12T01:45:40.908Z,14.48
2024-04-12T01:47:44.854Z,14.42
2024-04-12T01:49:46.659Z,14.35
2024-04-12T01:51:48.405Z,14.32
2024-04-12T01:53:50.376Z,14.23
2024-04-12T01:55:52.851Z,14.23
2024-04-12T01:57:57.811Z,14.25
2024-04-12T01:59:59.610Z,14.15
2024-04-12T02:02:01.335Z,14.09
2024-04-12T02:04:03.246Z,14.10
2024-04-12T02:06:05.490Z,14.16
2024-04-12T02:08:08.606Z,14.10
2024-04-12T02:10:10.663Z,14.11
2024-04-12T02:12:12.599Z,14.15
2024-04-12T02:14:16.977Z,14.08
2024-04-12T02:16:18.767Z,14.09
2024-04-12T02:18:21.048Z,13.90
2024-04-12T02:20:23.166Z,13.88
2024-04-12T02:22:25.139Z,13.92
2024-04-12T02:24:26.872Z,13.82
2024-04-12T02:26:28.712Z,13.79
2024-04-12T02:28:30.480Z,13.78
2024-04-12T02:30:36.047Z,13.71
2024-04-12T02:32:37.969Z,13.71
2024-04-12T02:34:39.808Z,13.73
2024-04-12T02:36:41.502Z,13.72
2024-04-12T02:38:44.322Z,13.68
2024-04-12T02:40:47.914Z,13.62
2024-04-12T02:42:49.621Z,13.57
2024-04-12T02:44:51.384Z,13.56
2024-04-12T02:46:55.831Z,13.47
2024-04-12T02:48:57.799Z,13.39
2024-04-12T02:51:01.137Z,13.34
2024-04-12T02:53:02.991Z,13.30
2024-04-12T02:55:05.800Z,13.30
2024-04-12T02:57:07.629Z,13.22
2024-04-12T02:59:09.424Z,13.21
2024-04-12T03:01:12.408Z,13.21
2024-04-12T03:03:17.114Z,13.20
2024-04-12T03:05:19.128Z,13.17
2024-04-12T03:07:20.916Z,13.16
2024-04-12T03:09:22.663Z,13.15
2024-04-12T03:11:24.929Z,13.11
2024-04-12T03:13:26.726Z,13.12
2024-04-12T03:15:28.578Z,13.11
2024-04-12T03:17:30.341Z,13.06
2024-04-12T03:19:34.756Z,13.11
2024-04-12T03:21:36.702Z,13.15
2024-04-12T03:23:38.647Z,13.14
2024-04-12T03:25:40.417Z,13.12
2024-04-12T03:27:42.701Z,13.14
2024-04-12T03:29:44.554Z,13.21
2024-04-12T03:31:47.365Z,13.24
2024-04-12T03:33:49.077Z,13.31
2024-04-12T03:35:53.444Z,13.35
2024-04-12T03:37:55.302Z,13.36
2024-04-12T03:39:57.222Z,13.42
2024-04-12T03:42:00.782Z,13.30
2024-04-12T03:44:02.899Z,13.24
2024-04-12T03:46:04.752Z,13.24
2024-04-12T03:48:07.722Z,13.31
2024-04-12T03:50:09.594Z,13.41
2024-04-12T03:52:17.475Z,13.42
2024-04-12T03:54:19.988Z,13.40
2024-04-12T03:56:21.695Z,13.42
2024-04-12T03:58:23.474Z,13.38
2024-04-12T04:00:25.295Z,13.32
2024-04-12T04:02:27.234Z,13.22
2024-04-12T04:04:29.167Z,13.08
2024-04-12T04:06:31.003Z,12.94
2024-04-12T04:08:36.700Z,12.89
2024-04-12T04:10:38.455Z,12.78
2024-04-12T04:12:40.413Z,12.71
2024-04-12T04:14:43.116Z,12.73
2024-04-12T04:16:45.001Z,12.67
2024-04-12T04:18:46.995Z,12.64
2024-04-12T04:20:48.923Z,12.60
2024-04-12T04:22:50.921Z,12.61
2024-04-12T04:24:55.489Z,12.55
2024-04-12T04:26:57.504Z,12.54
2024-04-12T04:28:59.333Z,12.50
2024-04-12T04:31:01.091Z,12.50
2024-04-12T04:33:02.981Z,12.48
2024-04-12T04:35:05.284Z,12.45
2024-04-12T04:37:14.734Z,12.48
2024-04-12T04:39:20.779Z,12.60
2024-04-12T04:41:27.337Z,12.73
2024-04-12T04:43:29.555Z,12.75
2024-04-12T04:45:31.275Z,12.68
2024-04-12T04:47:33.095Z,12.64
2024-04-12T04:49:35.148Z,12.66
2024-04-12T04:51:38.115Z,12.63
2024-04-12T04:53:39.883Z,12.76
2024-04-12T04:55:44.347Z,12.67
2024-04-12T04:57:49.159Z,12.66
2024-04-12T04:59:50.920Z,12.67
2024-04-12T05:01:52.696Z,12.74
2024-04-12T05:03:54.669Z,12.75
2024-04-12T05:05:56.699Z,12.79
2024-04-12T05:07:59.691Z,12.87
2024-04-12T05:10:02.031Z,12.85
2024-04-12T05:12:04.341Z,12.91
2024-04-12T05:14:08.951Z,12.90
2024-04-12T05:16:10.659Z,12.94
2024-04-12T05:18:12.583Z,12.97
2024-04-12T05:20:14.678Z,13.01
2024-04-12T05:22:17.964Z,13.00
2024-04-12T05:24:19.825Z,13.02
2024-04-12T05:26:22.130Z,13.07
2024-04-12T05:28:23.990Z,13.08
2024-04-12T05:30:28.349Z,13.03
2024-04-12T05:32:30.164Z,13.06
2024-04-12T05:34:31.965Z,13.08
2024-04-12T05:36:33.751Z,13.04
2024-04-12T05:38:35.806Z,13.02
2024-04-12T05:40:38.453Z,12.92
2024-04-12T05:42:40.334Z,12.92
2024-04-12T05:44:42.075Z,12.91
2024-04-12T05:46:46.608Z,12.99
2024-04-12T05:48:48.511Z,12.98
2024-04-12T05:50:51.262Z,13.04
2024-04-12T05:52:53.333Z,12.99
2024-04-12T05:54:55.084Z,13.03
2024-04-12T05:56:57.234Z,13.07
2024-04-12T05:58:59.189Z,12.98
2024-04-12T06:01:01.208Z,13.01
2024-04-12T06:03:05.721Z,13.00
2024-04-12T06:05:07.642Z,13.03
2024-04-12T06:07:09.428Z,13.09
2024-04-12T06:09:14.923Z,13.14
2024-04-12T06:11:19.749Z,13.22
2024-04-12T06:13:21.527Z,13.32
2024-04-12T06:15:23.432Z,13.37
2024-04-12T06:17:25.353Z,13.39
2024-04-12T06:19:29.963Z,13.40
2024-04-12T06:21:31.835Z,13.35
2024-04-12T06:23:33.992Z,13.41
2024-04-12T06:25:35.941Z,13.45
2024-04-12T06:27:37.853Z,13.42
2024-04-12T06:29:40.104Z,13.45
2024-04-12T06:31:42.230Z,13.53
2024-04-12T06:33:44.514Z,13.54
2024-04-12T06:35:49.761Z,13.51
2024-04-12T06:37:54.572Z,13.58
2024-04-12T06:39:56.717Z,13.67
2024-04-12T06:41:59.093Z,13.72
2024-04-12T06:44:00.975Z,13.78
2024-04-12T06:46:04.598Z,13.83
2024-04-12T06:48:07.195Z,13.89
2024-04-12T06:50:09.150Z,13.97
2024-04-12T06:52:14.132Z,14.01
2024-04-12T06:54:16.011Z,14.08
2024-04-12T06:56:19.252Z,14.21
2024-04-12T06:58:21.349Z,14.28
2024-04-12T07:00:23.693Z,14.33
2024-04-12T07:02:26.159Z,14.46
2024-04-12T07:04:28.315Z,14.52
2024-04-12T07:06:30.170Z,14.58
2024-04-12T07:08:34.687Z,14.68
2024-04-12T07:10:36.664Z,14.69
2024-04-12T07:12:38.442Z,14.76
2024-04-12T07:14:40.217Z,14.89
2024-04-12T07:16:42.290Z,15.05
2024-04-12T07:18:44.360Z,15.16
2024-04-12T07:20:46.248Z,15.34
2024-04-12T07:22:48.111Z,15.42
2024-04-12T07:24:52.840Z,15.65
2024-04-12T07:26:54.678Z,15.68
2024-04-12T07:28:58.882Z,15.77
2024-04-12T07:31:00.591Z,15.88
2024-04-12T07:33:02.497Z,15.87
2024-04-12T07:35:05.034Z,15.82
2024-04-12T07:37:06.903Z,15.89
2024-04-12T07:39:08.902Z,16.04
2024-04-12T07:41:13.727Z,16.02
2024-04-12T07:43:17.798Z,16.19
2024-04-12T07:45:24.599Z,16.19
2024-04-12T07:47:26.804Z,16.38
2024-04-12T07:49:28.725Z,16.61
2024-04-12T07:51:32.029Z,16.78
2024-04-12T07:53:33.849Z,16.91
2024-04-12T07:55:35.679Z,16.96
2024-04-12T07:57:40.238Z,16.86
2024-04-12T07:59:42.048Z,16.98
2024-04-12T08:01:44.617Z,17.04
2024-04-12T08:03:47.870Z,17.13
2024-04-12T08:05:49.825Z,17.18
2024-04-12T08:07:51.673Z,17.22
2024-04-12T08:09:53.561Z,17.24
2024-04-12T08:11:55.331Z,17.32
2024-04-12T08:14:00.637Z,17.40
2024-04-12T08:16:02.374Z,17.42
2024-04-12T08:18:04.890Z,17.49
2024-04-12T08:20:07.683Z,17.24
2024-04-12T08:22:09.462Z,17.31
2024-04-12T08:24:15.196Z,17.42
2024-04-12T08:26:17.660Z,17.42
2024-04-12T08:28:19.657Z,17.42
2024-04-12T08:30:24.182Z,17.37
2024-04-12T08:32:26.055Z,17.37
2024-04-12T08:34:28.708Z,17.48
2024-04-12T08:36:30.489Z,17.61
2024-04-12T08:38:32.274Z,17.63
2024-04-12T08:40:34.172Z,17.54
2024-04-12T08:42:36.634Z,17.60
2024-04-12T08:44:38.923Z,17.71
2024-04-12T08:46:43.637Z,17.78
2024-04-12T08:48:46.476Z,17.81
2024-04-12T08:50:50.257Z,17.81
2024-04-12T08:52:52.973Z,17.81
2024-04-12T08:54:55.920Z,17.79
2024-04-12T08:56:58.002Z,17.88
2024-04-12T08:59:00.352Z,17.93
2024-04-12T09:01:02.624Z,17.95
2024-04-12T09:03:07.974Z,18.00
2024-04-12T09:05:13.953Z,18.11
2024-04-12T09:07:17.025Z,18.25
2024-04-12T09:09:19.067Z,18.33
2024-04-12T09:11:22.262Z,18.45
2024-04-12T09:13:24.173Z,18.55
2024-04-12T09:15:26.219Z,18.60
2024-04-12T09:17:28.400Z,18.60
2024-04-12T09:19:33.168Z,18.54
2024-04-12T09:21:37.702Z,18.59
2024-04-12T09:23:44.376Z,18.62
2024-04-12T09:25:47.973Z,18.67
2024-04-12T09:27:49.863Z,18.70
2024-04-12T09:29:52.162Z,18.76
2024-04-12T09:31:56.307Z,18.78
2024-04-12T09:33:58.951Z,18.77
2024-04-12T09:36:05.894Z,18.95
2024-04-12T09:38:08.835Z,19.00
2024-04-12T09:40:13.064Z,19.09
2024-04-12T09:42:17.005Z,19.18
2024-04-12T09:44:19.028Z,19.22
2024-04-12T09:46:21.206Z,19.29
2024-04-12T09:48:24.909Z,19.21
2024-04-12T09:50:27.793Z,19.26
2024-04-12T09:52:33.491Z,19.29
2024-04-12T09:54:35.305Z,19.23
2024-04-12T09:56:39.366Z,19.22
2024-04-12T09:58:45.076Z,19.31
2024-04-12T10:00:51.472Z,19.40
2024-04-12T10:02:53.641Z,19.50
2024-04-12T10:04:57.424Z,19.60
2024-04-12T10:07:00.096Z,19.69
2024-04-12T10:09:04.894Z,19.69
2024-04-12T10:11:09.097Z,19.73
2024-04-12T10:13:12.990Z,19.69
2024-04-12T10:15:15.162Z,19.83
2024-04-12T10:17:22.342Z,19.97
2024-04-12T10:19:24.331Z,20.08
2024-04-12T10:21:26.283Z,20.10
2024-04-12T10:23:31.004Z,20.09
2024-04-12T10:25:38.968Z,20.06
2024-04-12T10:27:41.514Z,20.08
2024-04-12T10:29:45.886Z,20.12
2024-04-12T10:31:47.680Z,20.20
2024-04-12T10:33:49.999Z,20.27
2024-04-12T10:35:53.500Z,20.29
2024-04-12T10:37:55.399Z,20.42
2024-04-12T10:39:57.213Z,20.52
2024-04-12T10:42:02.772Z,20.66
2024-04-12T10:44:04.883Z,20.78
2024-04-12T10:46:07.429Z,20.93
2024-04-12T10:48:09.390Z,21.09
2024-04-12T10:50:11.715Z,21.20
2024-04-12T10:52:13.993Z,21.33
2024-04-12T10:54:15.995Z,21.48
2024-04-12T10:56:17.924Z,21.84
2024-04-12T10:58:22.902Z,22.06
2024-04-12T11:00:24.929Z,22.24
2024-04-12T11:02:27.497Z,22.38
2024-04-12T11:04:29.487Z,22.49
2024-04-12T11:06:32.054Z,22.48
2024-04-12T11:08:34.697Z,22.55
2024-04-12T11:10:37.710Z,22.52
2024-04-12T11:12:43.243Z,22.45
2024-04-12T11:14:47.846Z,22.50
2024-04-12T11:16:49.972Z,22.62
2024-04-12T11:18:52.119Z,22.61
2024-04-12T11:20:56.044Z,22.69
2024-04-12T11:23:04.341Z,22.76
2024-04-12T11:25:06.367Z,22.64
2024-04-12T11:27:08.354Z,22.76
2024-04-12T11:29:11.536Z,22.95
2024-04-12T11:31:16.892Z,23.18
2024-04-12T11:33:24.279Z,23.19
2024-04-12T11:35:29.438Z,23.24
2024-04-12T11:37:31.712Z,23.38
2024-04-12T11:39:34.735Z,23.37
2024-04-12T11:41:36.687Z,23.46
2024-04-12T11:43:38.600Z,23.40
2024-04-12T11:45:40.810Z,23.57
2024-04-12T11:47:45.526Z,23.68
2024-04-12T11:49:47.892Z,23.80
2024-04-12T11:51:49.926Z,23.89
2024-04-12T11:53:51.807Z,24.09
2024-04-12T11:55:53.840Z,24.31
2024-04-12T11:57:55.572Z,24.52
2024-04-12T11:59:57.516Z,24.54
2024-04-12T12:02:00.700Z,24.58
2024-04-12T12:04:05.394Z,24.61
2024-04-12T12:06:07.322Z,24.53
2024-04-12T12:08:11.660Z,24.57
2024-04-12T12:10:13.859Z,24.61
2024-04-12T12:12:15.946Z,24.69
2024-04-12T12:14:19.088Z,24.74
2024-04-12T12:16:20.962Z,24.81
2024-04-12T12:18:22.954Z,25.04
2024-04-12T12:20:27.729Z,24.84
2024-04-12T12:22:29.503Z,25.00
2024-04-12T12:24:31.807Z,25.06
2024-04-12T12:26:33.676Z,24.99
2024-04-12T12:28:35.854Z,24.77
2024-04-12T12:30:37.778Z,24.40
2024-04-12T12:32:39.720Z,24.22
2024-04-12T12:34:42.183Z,23.87
2024-04-12T12:36:46.587Z,23.59
2024-04-12T12:38:48.912Z,23.40
2024-04-12T12:40:50.796Z,23.47
2024-04-12T12:42:52.682Z,23.49
2024-04-12T12:44:54.968Z,23.49
2024-04-12T12:46:57.151Z,23.51
2024-04-12T12:48:59.231Z,23.41
2024-04-12T12:51:01.636Z,23.57
2024-04-12T12:53:06.708Z,23.65
2024-04-12T12:55:08.476Z,23.70
2024-04-12T12:57:11.436Z,23.51
2024-04-12T12:59:13.823Z,23.53
2024-04-12T13:01:16.073Z,23.68
2024-04-12T13:03:18.377Z,23.68
2024-04-12T13:05:21.057Z,23.65
2024-04-12T13:07:23.572Z,23.67
2024-04-12T13:09:28.225Z,23.76
2024-04-12T13:11:30.385Z,23.82
2024-04-12T13:13:32.309Z,23.72
2024-04-12T13:15:34.388Z,23.76
2024-04-12T13:17:36.409Z,23.67
2024-04-12T13:19:38.259Z,23.65
2024-04-12T13:21:41.419Z,23.52
2024-04-12T13:23:44.106Z,23.55
2024-04-12T13:25:48.823Z,23.49
2024-04-12T13:27:50.665Z,23.49
2024-04-12T13:29:52.516Z,23.53
2024-04-12T13:31:54.525Z,23.41
2024-04-12T13:33:57.200Z,23.48
2024-04-12T13:35:59.260Z,23.70
2024-04-12T13:38:01.227Z,23.71
2024-04-12T13:40:03.399Z,23.63
2024-04-12T13:42:20.430Z,23.61
2024-04-12T13:44:22.323Z,23.63
2024-04-12T13:46:24.235Z,23.64
2024-04-12T13:48:26.810Z,23.71
2024-04-12T13:50:28.841Z,23.84
2024-04-12T13:52:30.930Z,23.84
2024-04-12T13:54:33.010Z,23.83
2024-04-12T13:56:34.980Z,23.78
2024-04-12T13:58:39.886Z,23.78
2024-04-12T14:00:41.837Z,23.78
2024-04-12T14:02:43.862Z,23.79
2024-04-12T14:04:45.889Z,23.71
2024-04-12T14:06:48.610Z,23.69
2024-04-12T14:08:51.628Z,23.70
2024-04-12T14:10:53.581Z,23.71
2024-04-12T14:12:55.442Z,23.79
2024-04-12T14:15:00.097Z,23.69
2024-04-12T14:17:01.970Z,23.66
2024-04-12T14:19:03.782Z,23.63
2024-04-12T14:21:05.789Z,23.67
2024-04-12T14:23:07.863Z,23.63
2024-04-12T14:25:09.612Z,23.68
2024-04-12T14:27:11.988Z,23.58
2024-04-12T14:29:13.894Z,23.60
2024-04-12T14:31:18.701Z,23.65
2024-04-12T14:33:24.644Z,23.57
2024-04-12T14:35:27.540Z,23.62
2024-04-12T14:37:29.384Z,23.62
2024-04-12T14:39:31.527Z,23.61
2024-04-12T14:41:33.371Z,23.63
2024-04-12T14:43:36.206Z,23.53
2024-04-12T14:45:38.102Z,23.45
2024-04-12T14:47:48.900Z,23.38
2024-04-12T14:49:57.463Z,23.37
2024-04-12T14:51:59.540Z,23.41
2024-04-12T14:54:01.366Z,23.45
2024-04-12T14:56:03.386Z,23.31
2024-04-12T14:58:05.208Z,23.20
2024-04-12T15:00:08.337Z,23.23
2024-04-12T15:02:10.240Z,23.23
2024-04-12T15:04:15.029Z,23.24
2024-04-12T15:06:17.397Z,23.19
2024-04-12T15:08:19.380Z,23.23
2024-04-12T15:10:21.648Z,23.23
2024-04-12T15:12:23.788Z,23.21
2024-04-12T15:14:26.161Z,23.14
2024-04-12T15:16:28.041Z,23.09
2024-04-12T15:18:30.074Z,23.11
2024-04-12T15:20:37.971Z,23.15
2024-04-12T15:22:40.793Z,23.16
2024-04-12T15:24:42.662Z,23.18
2024-04-12T15:26:44.513Z,23.20
2024-04-12T15:28:46.377Z,23.16
2024-04-12T15:30:48.112Z,23.10
2024-04-12T15:32:50.049Z,23.08
2024-04-12T15:34:52.068Z,23.07
2024-04-12T15:36:56.538Z,23.09
2024-04-12T15:38:58.355Z,23.09
2024-04-12T15:41:00.222Z,23.12
2024-04-12T15:43:02.150Z,23.12
2024-04-12T15:45:04.847Z,23.10
2024-04-12T15:47:06.727Z,23.02
2024-04-12T15:49:08.561Z,22.91
2024-04-12T15:51:10.415Z,22.93
2024-04-12T15:53:14.844Z,23.00
2024-04-12T15:55:16.784Z,23.04
2024-04-12T15:57:19.142Z,23.04
2024-04-12T15:59:21.037Z,23.04
2024-04-12T16:01:22.895Z,23.11
2024-04-12T16:03:24.876Z,23.14
2024-04-12T16:05:27.103Z,23.18
2024-04-12T16:07:28.969Z,23.19
2024-04-12T16:09:34.848Z,23.20
2024-04-12T16:11:36.708Z,23.19
2024-04-12T16:13:38.871Z,23.16
2024-04-12T16:15:40.846Z,23.16
2024-04-12T16:17:42.896Z,23.12
2024-04-12T16:19:44.990Z,23.13
2024-04-12T16:21:46.899Z,23.13
2024-04-12T16:23:48.831Z,23.16
2024-04-12T16:26:01.552Z,23.17
2024-04-12T16:28:08.066Z,23.19
2024-04-12T16:30:12.027Z,23.20
2024-04-12T16:32:13.882Z,23.21
2024-04-12T16:34:15.984Z,23.15
2024-04-12T16:36:18.005Z,23.14
2024-04-12T16:38:19.980Z,23.10
2024-04-12T16:40:21.746Z,22.97
2024-04-12T16:42:26.393Z,22.93
2024-04-12T16:44:28.159Z,22.90
2024-04-12T16:46:30.344Z,22.75
2024-04-12T16:48:32.747Z,22.74
2024-04-12T16:50:35.145Z,22.72
2024-04-12T16:52:37.060Z,22.73
2024-04-12T16:54:39.098Z,22.67
2024-04-12T16:56:40.973Z,22.60
2024-04-12T16:58:45.482Z,22.63
2024-04-12T17:00:47.430Z,22.60
2024-04-12T17:02:49.398Z,22.52
2024-04-12T17:04:51.348Z,22.40
2024-04-12T17:06:54.247Z,22.43
2024-04-12T17:08:56.134Z,22.48
2024-04-12T17:10:58.080Z,22.56
2024-04-12T17:13:00.027Z,22.44
2024-04-12T17:15:05.454Z,22.34
2024-04-12T17:17:07.414Z,22.31
2024-04-12T17:19:09.569Z,22.27
2024-04-12T17:21:11.486Z,22.27
2024-04-12T17:23:14.559Z,22.18
2024-04-12T17:25:19.490Z,22.16
2024-04-12T17:27:22.105Z,22.11
2024-04-12T17:29:24.909Z,22.07
2024-04-12T17:31:31.125Z,22.02
2024-04-12T17:33:32.984Z,22.07
2024-04-12T17:35:34.778Z,22.18
2024-04-12T17:37:36.754Z,22.16
2024-04-12T17:39:38.574Z,22.08
2024-04-12T17:41:40.461Z,22.10
2024-04-12T17:43:42.366Z,21.99
2024-04-12T17:45:44.143Z,21.97
2024-04-12T17:47:48.722Z,21.92
2024-04-12T17:49:51.209Z,21.94
2024-04-12T17:51:53.117Z,21.94
2024-04-12T17:53:55.755Z,21.91
2024-04-12T17:55:58.302Z,21.83
2024-04-12T17:58:00.887Z,21.84
2024-04-12T18:00:02.921Z,21.77
2024-04-12T18:02:05.581Z,21.72
2024-04-12T18:04:10.526Z,21.63
2024-04-12T18:06:12.791Z,21.58
2024-04-12T18:08:14.699Z,21.51
2024-04-12T18:10:17.912Z,21.51
2024-04-12T18:12:20.599Z,21.48
2024-04-12T18:14:22.890Z,21.40
2024-04-12T18:16:25.266Z,21.38
2024-04-12T18:18:27.890Z,21.36
2024-04-12T18:20:32.443Z,21.33
2024-04-12T18:22:34.381Z,21.26
2024-04-12T18:24:36.628Z,21.22
2024-04-12T18:26:38.500Z,21.20
2024-04-12T18:28:40.326Z,21.20
2024-04-12T18:30:44.748Z,21.19
2024-04-12T18:32:46.758Z,21.16
2024-04-12T18:34:48.541Z,21.14
2024-04-12T18:36:53.061Z,21.11
2024-04-12T18:38:54.987Z,21.10
2024-04-12T18:40:56.959Z,21.13
2024-04-12T18:42:58.847Z,21.08
2024-04-12T18:45:00.938Z,21.08
2024-04-12T18:47:02.912Z,21.03
2024-04-12T18:49:04.972Z,21.02
2024-04-12T18:51:07.131Z,20.98
2024-04-12T18:53:11.598Z,20.93
2024-04-12T18:55:13.536Z,20.87
2024-04-12T18:57:15.430Z,20.79
2024-04-12T18:59:17.511Z,20.82
2024-04-12T19:01:19.913Z,20.82
2024-04-12T19:03:21.841Z,20.79
2024-04-12T19:05:23.728Z,20.70
2024-04-12T19:07:25.712Z,20.68
2024-04-12T19:09:30.383Z,20.64
2024-04-12T19:11:33.058Z,20.64
2024-04-12T19:13:35.123Z,20.61
2024-04-12T19:15:37.345Z,20.56
2024-04-12T19:17:39.164Z,20.50
2024-04-12T19:19:41.288Z,20.51
2024-04-12T19:21:43.305Z,20.45
2024-04-12T19:23:45.121Z,20.40
2024-04-12T19:25:55.336Z,20.33
2024-04-12T19:27:57.248Z,20.32
2024-04-12T19:29:59.201Z,20.18
2024-04-12T19:32:01.285Z,20.14
2024-04-12T19:34:03.359Z,20.08
2024-04-12T19:36:06.225Z,20.06
2024-04-12T19:38:08.565Z,20.04
2024-04-12T19:40:11.342Z,19.98
2024-04-12T19:42:16.009Z,19.96
2024-04-12T19:44:17.822Z,19.88
2024-04-12T19:46:19.604Z,19.81
2024-04-12T19:48:21.704Z,19.79
2024-04-12T19:50:23.827Z,19.81
2024-04-12T19:52:25.700Z,19.70
2024-04-12T19:54:27.661Z,19.79
2024-04-12T19:56:29.614Z,19.71
2024-04-12T19:58:35.457Z,19.67
2024-04-12T20:00:38.278Z,19.60
2024-04-12T20:02:40.215Z,19.53
2024-04-12T20:04:42.111Z,19.48
2024-04-12T20:06:44.066Z,19.43
2024-04-12T20:08:45.982Z,19.24
2024-04-12T20:10:54.961Z,19.26
2024-04-12T20:12:56.809Z,19.35
2024-04-12T20:15:01.910Z,19.36
2024-04-12T20:17:04.182Z,19.35
2024-04-12T20:19:06.202Z,19.24
2024-04-12T20:21:08.588Z,19.15
2024-04-12T20:23:10.417Z,19.18
2024-04-12T20:25:12.264Z,19.15
2024-04-12T20:27:14.287Z,19.13
2024-04-12T20:29:16.276Z,19.09
2024-04-12T20:31:22.148Z,19.05
2024-04-12T20:33:24.309Z,19.05
2024-04-12T20:35:26.307Z,18.99
2024-04-12T20:37:28.414Z,18.94
2024-04-12T20:39:30.502Z,18.91
2024-04-12T20:41:33.085Z,19.04
2024-04-12T20:43:35.133Z,19.07
2024-04-12T20:45:37.209Z,19.05
2024-04-12T20:47:42.445Z,19.04
2024-04-12T20:49:44.635Z,18.88
2024-04-12T20:51:47.914Z,18.92
2024-04-12T20:53:50.863Z,18.99
2024-04-12T20:55:52.773Z,18.98
2024-04-12T20:57:54.606Z,18.92
2024-04-12T20:59:56.483Z,18.87
2024-04-12T21:01:58.686Z,18.87
2024-04-12T21:04:03.153Z,18.90
2024-04-12T21:06:05.530Z,18.89
2024-04-12T21:08:07.705Z,18.94
2024-04-12T21:10:09.556Z,18.90
2024-04-12T21:12:11.409Z,18.93
2024-04-12T21:14:14.040Z,18.88
2024-04-12T21:16:16.016Z,18.89
2024-04-12T21:18:17.866Z,18.89
2024-04-12T21:20:22.388Z,18.94
2024-04-12T21:22:24.339Z,18.96
2024-04-12T21:24:26.726Z,18.91
2024-04-12T21:26:29.635Z,18.89
2024-04-12T21:28:34.454Z,18.87
2024-04-12T21:30:37.039Z,18.87
2024-04-12T21:32:39.956Z,18.79
2024-04-12T21:34:41.913Z,18.72
2024-04-12T21:36:46.350Z,18.63
2024-04-12T21:38:48.538Z,18.56
2024-04-12T21:40:57.812Z,18.50
2024-04-12T21:42:59.522Z,18.56
2024-04-12T21:45:01.844Z,18.56
2024-04-12T21:47:03.842Z,18.60
2024-04-12T21:49:05.635Z,18.60
2024-04-12T21:51:09.227Z,18.54
2024-04-12T21:53:13.760Z,18.42
2024-04-12T21:55:15.809Z,18.41
2024-04-12T21:57:17.641Z,18.42
2024-04-12T21:59:19.598Z,18.46
2024-04-12T22:01:21.578Z,18.46
2024-04-12T22:03:23.740Z,18.49
2024-04-12T22:05:25.760Z,18.40
2024-04-12T22:07:27.553Z,18.35
2024-04-12T22:09:32.053Z,18.26
2024-04-12T22:11:33.948Z,18.18
2024-04-12T22:13:36.498Z,18.11
2024-04-12T22:15:38.324Z,18.12
2024-04-12T22:17:40.251Z,18.16
2024-04-12T22:19:42.177Z,18.06
2024-04-12T22:21:43.959Z,17.97
2024-04-12T22:23:47.009Z,17.92
2024-04-12T22:25:51.617Z,17.87
2024-04-12T22:27:53.486Z,17.85
2024-04-12T22:29:55.445Z,17.84
2024-04-12T22:31:57.219Z,17.91
2024-04-12T22:33:59.059Z,17.91
2024-04-12T22:36:01.779Z,17.97
2024-04-12T22:38:03.714Z,17.95
2024-04-12T22:40:06.677Z,17.94
2024-04-12T22:42:11.147Z,17.88
2024-04-12T22:44:13.066Z,17.85
2024-04-12T22:46:15.062Z,17.84
2024-04-12T22:48:16.932Z,17.82
2024-04-12T22:50:18.802Z,17.79
2024-04-12T22:52:20.558Z,17.70
2024-04-12T22:54:22.398Z,17.65
2024-04-12T22:56:24.190Z,17.66
2024-04-12T22:58:28.755Z,17.65
2024-04-12T23:00:30.602Z,17.69
2024-04-12T23:02:32.410Z,17.69
2024-04-12T23:04:34.233Z,17.80
2024-04-12T23:06:37.287Z,17.72
2024-04-12T23:08:39.240Z,17.70
2024-04-12T23:10:41.097Z,17.62
2024-04-12T23:12:42.988Z,17.62
2024-04-12T23:14:47.475Z,17.66
2024-04-12T23:16:49.402Z,17.66
2024-04-12T23:18:52.851Z,17.68
2024-04-12T23:20:55.041Z,17.69
2024-04-12T23:22:57.010Z,17.61
2024-04-12T23:24:58.797Z,17.60
2024-04-12T23:27:00.723Z,17.51
2024-04-12T23:29:02.460Z,17.46
2024-04-12T23:31:07.020Z,17.40
2024-04-12T23:33:09.013Z,17.42
2024-04-12T23:35:10.805Z,17.43
2024-04-12T23:37:13.107Z,17.33
2024-04-12T23:39:14.932Z,17.23
2024-04-12T23:41:16.673Z,17.24
2024-04-12T23:43:18.467Z,17.32
2024-04-12T23:45:20.344Z,17.29
2024-04-12T23:47:24.967Z,17.21
2024-04-12T23:49:26.836Z,17.15
2024-04-12T23:51:28.800Z,17.09
2024-04-12T23:53:30.596Z,17.16
2024-04-12T23:55:33.396Z,17.16
2024-04-12T23:57:35.133Z,17.11
2024-04-12T23:59:37.120Z,17.06
